Time;durP1;ratioP1;P1;durP2;ratioP2;P2;SDS_P1;SDS_P2;PMS_P1;PMS_P2;Temp;Humidity;BMP_temperature;BMP_pressure;BME280_temperature;BME280_humidity;BME280_pressure;Samples;Min_cycle;Max_cycle;Signal;HPM_P1;HPM_P2
2021/11/23 00:01:23;;;;;;;3.90;3.60;;;8.80;99.90;;;;;;5039391;28;20230;-76
2021/11/23 00:03:50;;;;;;;3.70;3.40;;;8.80;99.90;;;;;;5041813;28;20223;-76
2021/11/23 00:06:19;;;;;;;3.97;3.67;;;8.80;99.90;;;;;;5039623;28;20238;-76
2021/11/23 00:08:47;;;;;;;3.20;3.00;;;8.70;99.90;;;;;;5038797;28;20763;-76
2021/11/23 00:11:14;;;;;;;3.58;3.38;;;8.70;99.90;;;;;;5036470;28;20227;-77
2021/11/23 00:13:41;;;;;;;3.67;3.40;;;8.70;99.90;;;;;;5039959;28;20226;-76
2021/11/23 00:16:08;;;;;;;3.95;3.65;;;8.60;99.90;;;;;;5038356;28;20219;-76
2021/11/23 00:18:35;;;;;;;4.10;3.70;;;8.60;99.90;;;;;;5039019;28;20211;-77
2021/11/23 00:21:02;;;;;;;5.10;4.70;;;8.60;99.90;;;;;;5036978;28;20233;-76
2021/11/23 00:23:31;;;;;;;5.95;5.38;;;8.60;99.90;;;;;;5037375;28;20281;-76
2021/11/23 00:25:59;;;;;;;5.47;4.97;;;8.60;99.90;;;;;;5039716;28;20219;-77
2021/11/23 00:28:27;;;;;;;6.05;5.47;;;8.60;99.90;;;;;;5043172;28;20222;-76
2021/11/23 00:30:54;;;;;;;5.00;4.60;;;8.60;99.90;;;;;;5038647;28;20230;-76
2021/11/23 00:33:21;;;;;;;5.07;4.68;;;8.50;99.90;;;;;;5041554;28;20578;-77
2021/11/23 00:35:49;;;;;;;4.90;4.50;;;8.50;99.90;;;;;;5040804;28;20215;-77
2021/11/23 00:38:16;;;;;;;4.80;4.40;;;8.50;99.90;;;;;;5041329;28;20300;-77
2021/11/23 00:40:45;;;;;;;6.00;4.80;;;8.50;99.90;;;;;;5039472;28;20226;-76
2021/11/23 00:43:12;;;;;;;4.80;4.40;;;8.50;99.90;;;;;;5039901;28;20225;-76
2021/11/23 00:45:41;;;;;;;4.65;4.25;;;8.50;99.90;;;;;;5039536;28;20219;-77
2021/11/23 00:48:09;;;;;;;4.60;4.30;;;8.60;99.90;;;;;;5041767;28;20230;-76
2021/11/23 00:50:36;;;;;;;5.28;4.78;;;8.50;99.90;;;;;;5043257;28;20230;-77
2021/11/23 00:53:05;;;;;;;4.82;4.40;;;8.60;99.90;;;;;;5043169;28;20219;-77
2021/11/23 00:55:32;;;;;;;5.07;4.68;;;8.60;99.90;;;;;;5043636;28;20223;-76
2021/11/23 00:58:00;;;;;;;5.68;5.18;;;8.60;99.90;;;;;;5044450;28;20219;-77
2021/11/23 01:00:28;;;;;;;5.25;4.80;;;8.60;99.90;;;;;;5044135;28;20222;-76
2021/11/23 01:02:55;;;;;;;5.35;4.90;;;8.60;99.90;;;;;;5045969;28;20226;-76
2021/11/23 01:05:22;;;;;;;5.45;5.03;;;8.60;99.90;;;;;;5043045;28;20230;-77
2021/11/23 01:07:49;;;;;;;5.47;4.97;;;8.60;99.90;;;;;;5045596;28;20292;-76
2021/11/23 01:10:16;;;;;;;5.35;4.88;;;8.60;99.90;;;;;;5042212;28;20715;-76
2021/11/23 01:12:43;;;;;;;5.30;4.85;;;8.60;99.90;;;;;;5047165;28;20539;-76
2021/11/23 01:15:13;;;;;;;5.55;4.90;;;8.60;99.90;;;;;;5042372;28;20234;-77
2021/11/23 01:17:40;;;;;;;5.70;5.20;;;8.60;99.90;;;;;;5042596;28;20596;-76
2021/11/23 01:20:10;;;;;;;5.18;4.72;;;8.60;99.90;;;;;;5044141;28;20230;-76
2021/11/23 01:22:40;;;;;;;4.88;4.47;;;8.60;99.90;;;;;;5028322;22;20224;-78
2021/11/23 01:25:08;;;;;;;4.80;4.40;;;8.60;99.90;;;;;;5020742;28;20231;-75
2021/11/23 01:27:35;;;;;;;4.50;4.10;;;8.60;99.90;;;;;;5020550;28;20219;-79
2021/11/23 01:30:03;;;;;;;5.45;5.00;;;8.60;99.90;;;;;;5018921;28;20234;-80
2021/11/23 01:32:31;;;;;;;5.32;4.82;;;8.60;99.90;;;;;;5022345;28;20750;-77
2021/11/23 01:34:58;;;;;;;5.63;4.60;;;8.60;99.90;;;;;;5020559;28;20212;-76
2021/11/23 01:37:25;;;;;;;4.80;4.32;;;8.60;99.90;;;;;;5021647;28;20717;-75
2021/11/23 01:39:53;;;;;;;5.10;4.70;;;8.60;99.90;;;;;;5021874;28;20250;-79
2021/11/23 01:42:20;;;;;;;4.45;4.05;;;8.60;99.90;;;;;;5021609;28;20235;-79
2021/11/23 01:44:47;;;;;;;4.50;4.10;;;8.60;99.90;;;;;;5021487;28;20231;-78
2021/11/23 01:47:14;;;;;;;4.53;4.18;;;8.60;99.90;;;;;;5018826;28;20234;-77
2021/11/23 01:49:43;;;;;;;4.03;3.63;;;8.60;99.90;;;;;;5018034;28;20231;-75
2021/11/23 01:52:10;;;;;;;3.75;3.45;;;8.60;99.90;;;;;;5020989;28;20230;-76
2021/11/23 01:54:37;;;;;;;3.92;3.63;;;8.60;99.90;;;;;;5022246;28;20705;-76
2021/11/23 01:57:05;;;;;;;3.70;3.40;;;8.60;99.90;;;;;;5023137;28;20220;-76
2021/11/23 01:59:32;;;;;;;3.55;3.25;;;8.60;99.90;;;;;;5020842;28;20234;-80
2021/11/23 02:01:59;;;;;;;3.65;3.35;;;8.60;99.90;;;;;;5021869;28;20227;-78
2021/11/23 02:04:26;;;;;;;3.83;3.53;;;8.60;99.90;;;;;;5023882;28;20219;-79
2021/11/23 02:06:55;;;;;;;3.20;3.00;;;8.60;99.90;;;;;;5018185;28;20753;-78
2021/11/23 02:09:22;;;;;;;2.75;2.55;;;8.60;99.90;;;;;;5008816;28;20219;-81
2021/11/23 02:11:50;;;;;;;3.47;3.17;;;8.60;99.90;;;;;;5018710;28;20223;-77
2021/11/23 02:14:19;;;;;;;2.83;2.63;;;8.60;99.90;;;;;;5021773;28;20717;-78
2021/11/23 02:16:46;;;;;;;3.00;2.80;;;8.60;99.90;;;;;;5016483;28;20783;-77
2021/11/23 02:19:13;;;;;;;2.92;2.72;;;8.60;99.90;;;;;;5021045;28;20211;-77
2021/11/23 02:21:42;;;;;;;2.90;2.70;;;8.60;99.90;;;;;;5019445;28;20219;-78
2021/11/23 02:24:09;;;;;;;3.35;3.08;;;8.60;99.90;;;;;;5022394;28;20220;-79
2021/11/23 02:26:36;;;;;;;3.10;2.90;;;8.60;99.90;;;;;;5020856;28;20219;-81
2021/11/23 02:29:03;;;;;;;3.78;3.47;;;8.60;99.90;;;;;;5019187;28;20217;-80
2021/11/23 02:31:30;;;;;;;4.00;3.70;;;8.50;99.90;;;;;;5020793;28;20793;-78
2021/11/23 02:33:58;;;;;;;5.97;4.35;;;8.40;99.90;;;;;;5021532;28;20228;-79
2021/11/23 02:36:25;;;;;;;3.97;3.58;;;8.20;99.90;;;;;;5021864;28;20220;-78
2021/11/23 02:38:53;;;;;;;3.50;3.30;;;8.20;99.90;;;;;;5022677;28;20215;-80
2021/11/23 02:41:22;;;;;;;3.38;3.10;;;8.20;99.90;;;;;;5017455;28;20227;-74
2021/11/23 02:43:49;;;;;;;3.25;3.05;;;8.20;99.90;;;;;;5021255;28;20650;-78
2021/11/23 02:46:16;;;;;;;3.72;3.42;;;8.30;99.90;;;;;;5020729;28;20693;-79
2021/11/23 02:48:44;;;;;;;2.97;2.78;;;8.30;99.90;;;;;;5022689;28;20722;-75
2021/11/23 02:51:14;;;;;;;2.97;2.78;;;8.40;99.90;;;;;;5020220;28;20219;-77
2021/11/23 02:53:42;;;;;;;2.80;2.63;;;8.40;99.90;;;;;;5020857;28;20689;-74
2021/11/23 02:56:10;;;;;;;3.05;2.85;;;8.40;99.90;;;;;;5018516;28;20223;-78
2021/11/23 02:58:38;;;;;;;2.42;2.33;;;8.40;99.90;;;;;;5020971;28;20226;-75
2021/11/23 03:01:07;;;;;;;2.85;2.65;;;8.40;99.90;;;;;;5021364;28;20216;-78
2021/11/23 03:03:34;;;;;;;2.80;2.60;;;8.40;99.90;;;;;;5022073;28;20230;-76
2021/11/23 03:06:02;;;;;;;2.92;2.72;;;8.50;99.90;;;;;;5020288;28;20249;-78
2021/11/23 03:08:29;;;;;;;3.60;3.30;;;8.50;99.90;;;;;;5020621;28;20215;-76
2021/11/23 03:10:56;;;;;;;2.92;2.70;;;8.50;99.90;;;;;;5021331;28;20234;-76
2021/11/23 03:13:24;;;;;;;3.15;2.95;;;8.50;99.90;;;;;;5024222;28;20250;-78
2021/11/23 03:15:52;;;;;;;2.70;2.50;;;8.50;99.90;;;;;;5018014;28;20737;-74
2021/11/23 03:18:19;;;;;;;2.85;2.65;;;8.50;99.90;;;;;;5018859;28;20223;-77
2021/11/23 03:20:46;;;;;;;3.20;2.88;;;8.50;99.90;;;;;;5020361;28;20738;-77
2021/11/23 03:23:14;;;;;;;3.03;2.83;;;8.50;99.90;;;;;;5020742;28;20222;-80
2021/11/23 03:25:42;;;;;;;2.85;2.65;;;8.50;99.90;;;;;;5019722;28;20219;-76
2021/11/23 03:28:10;;;;;;;2.40;2.30;;;8.50;99.90;;;;;;5019292;28;20223;-76
2021/11/23 03:30:38;;;;;;;2.90;2.70;;;8.50;99.90;;;;;;5017960;28;20246;-77
2021/11/23 03:33:08;;;;;;;2.85;2.65;;;8.50;99.90;;;;;;5017634;28;20237;-76
2021/11/23 03:35:39;;;;;;;3.30;3.00;;;8.50;99.90;;;;;;5019682;28;20235;-78
2021/11/23 03:38:08;;;;;;;2.95;2.75;;;8.50;99.90;;;;;;5020705;28;20229;-78
2021/11/23 03:40:37;;;;;;;2.75;2.55;;;8.50;99.90;;;;;;5018873;28;20226;-76
2021/11/23 03:43:06;;;;;;;2.78;2.58;;;8.50;99.90;;;;;;5019717;28;20254;-76
2021/11/23 03:45:33;;;;;;;2.75;2.60;;;8.50;99.90;;;;;;5017633;28;20226;-79
2021/11/23 03:48:02;;;;;;;2.45;2.35;;;8.50;99.90;;;;;;5018909;28;20242;-77
2021/11/23 03:50:30;;;;;;;2.78;2.58;;;8.50;99.90;;;;;;5022156;28;20223;-78
2021/11/23 03:52:58;;;;;;;2.33;2.22;;;8.60;99.90;;;;;;5018109;28;20703;-76
2021/11/23 03:55:27;;;;;;;2.60;2.50;;;8.60;99.90;;;;;;5000895;28;20230;-75
2021/11/23 03:57:55;;;;;;;2.80;2.60;;;8.50;99.90;;;;;;5023432;28;20235;-77
2021/11/23 04:00:23;;;;;;;2.20;2.10;;;8.50;99.90;;;;;;5019924;28;20215;-79
2021/11/23 04:02:53;;;;;;;2.53;2.42;;;8.50;99.90;;;;;;5019839;28;20303;-75
2021/11/23 04:05:21;;;;;;;2.10;2.00;;;8.50;99.90;;;;;;5016194;28;20342;-78
2021/11/23 04:07:49;;;;;;;2.40;2.30;;;8.50;99.90;;;;;;5020680;28;20227;-76
2021/11/23 04:10:17;;;;;;;2.72;2.63;;;8.50;99.90;;;;;;5018849;28;20617;-75
2021/11/23 04:12:46;;;;;;;2.40;2.30;;;8.50;99.90;;;;;;5021701;28;20974;-76
2021/11/23 04:15:13;;;;;;;2.40;2.30;;;8.50;99.90;;;;;;5018784;28;20219;-81
2021/11/23 04:17:40;;;;;;;2.45;2.33;;;8.50;99.90;;;;;;5018939;28;20266;-76
2021/11/23 04:20:09;;;;;;;2.75;2.55;;;8.40;99.90;;;;;;5015168;28;20219;-77
2021/11/23 04:22:38;;;;;;;2.80;2.60;;;8.40;99.90;;;;;;5020430;28;20720;-76
2021/11/23 04:25:07;;;;;;;2.45;2.35;;;8.40;99.90;;;;;;5018747;28;20227;-74
2021/11/23 04:27:34;;;;;;;2.40;2.30;;;8.30;99.90;;;;;;5019950;28;20219;-74
2021/11/23 04:30:01;;;;;;;2.65;2.45;;;8.30;99.90;;;;;;5018152;28;20270;-76
2021/11/23 04:32:29;;;;;;;2.58;2.47;;;8.30;99.90;;;;;;5018416;28;20215;-76
2021/11/23 04:34:56;;;;;;;2.78;2.63;;;8.30;99.90;;;;;;5020175;28;20322;-75
2021/11/23 04:37:23;;;;;;;2.55;2.40;;;8.30;99.90;;;;;;5017708;28;20216;-78
2021/11/23 04:39:52;;;;;;;2.60;2.40;;;8.30;99.90;;;;;;5019887;28;20238;-76
2021/11/23 04:42:19;;;;;;;2.50;2.30;;;8.30;99.90;;;;;;5020488;28;20254;-75
2021/11/23 04:44:46;;;;;;;2.60;2.40;;;8.30;99.90;;;;;;5019195;28;20223;-74
2021/11/23 04:47:14;;;;;;;2.53;2.40;;;8.30;99.90;;;;;;5019000;28;20235;-74
2021/11/23 04:49:41;;;;;;;2.35;2.25;;;8.30;99.90;;;;;;5019540;28;20228;-76
2021/11/23 04:52:08;;;;;;;2.33;2.22;;;8.30;99.90;;;;;;5020069;28;20706;-73
2021/11/23 04:54:35;;;;;;;2.42;2.22;;;8.30;99.90;;;;;;5017932;28;20219;-77
2021/11/23 04:57:04;;;;;;;2.60;2.45;;;8.30;99.90;;;;;;5020891;28;20215;-78
2021/11/23 04:59:31;;;;;;;2.47;2.28;;;8.30;99.90;;;;;;5018658;28;20227;-73
2021/11/23 05:01:59;;;;;;;2.20;2.10;;;8.30;99.90;;;;;;5018823;28;20652;-74
2021/11/23 05:04:26;;;;;;;2.50;2.33;;;8.30;99.90;;;;;;5021458;28;20226;-78
2021/11/23 05:06:53;;;;;;;2.60;2.50;;;8.20;99.90;;;;;;5014379;28;20271;-73
2021/11/23 05:09:20;;;;;;;2.55;2.40;;;8.20;99.90;;;;;;5020245;28;20230;-74
2021/11/23 05:11:48;;;;;;;2.63;2.53;;;8.20;99.90;;;;;;5023891;28;22601;-77
2021/11/23 05:14:17;;;;;;;2.45;2.30;;;8.20;99.90;;;;;;5021051;28;20675;-75
2021/11/23 05:16:45;;;;;;;2.50;2.40;;;8.20;99.90;;;;;;5025461;28;20250;-74
2021/11/23 05:19:12;;;;;;;2.55;2.45;;;8.30;99.90;;;;;;5026591;28;20230;-77
2021/11/23 05:21:39;;;;;;;2.83;2.63;;;8.30;99.90;;;;;;5022652;28;20234;-73
2021/11/23 05:24:09;;;;;;;3.05;2.75;;;8.30;99.90;;;;;;5024312;28;20227;-75
2021/11/23 05:26:36;;;;;;;2.60;2.50;;;8.30;99.90;;;;;;5021323;28;20220;-75
2021/11/23 05:29:03;;;;;;;2.22;2.13;;;8.30;99.90;;;;;;5020428;28;20227;-76
2021/11/23 05:31:32;;;;;;;2.70;2.60;;;8.30;99.90;;;;;;5022302;28;20227;-74
2021/11/23 05:33:59;;;;;;;2.55;2.40;;;8.30;99.90;;;;;;5024017;28;20693;-74
2021/11/23 05:36:26;;;;;;;2.28;2.17;;;8.30;99.90;;;;;;5024756;28;20230;-74
2021/11/23 05:38:53;;;;;;;2.38;2.28;;;8.30;99.90;;;;;;5022014;28;20231;-75
2021/11/23 05:41:20;;;;;;;2.42;2.30;;;8.30;99.90;;;;;;5020869;28;20223;-75
2021/11/23 05:43:47;;;;;;;2.15;2.05;;;8.30;99.90;;;;;;5023599;28;20231;-77
2021/11/23 05:46:15;;;;;;;2.58;2.42;;;8.30;99.90;;;;;;5022810;28;20223;-75
2021/11/23 05:48:43;;;;;;;2.17;1.98;;;8.30;99.90;;;;;;5023327;28;20255;-75
2021/11/23 05:51:12;;;;;;;2.85;2.60;;;8.30;99.90;;;;;;5022874;28;20242;-75
2021/11/23 05:53:40;;;;;;;2.40;2.30;;;8.30;99.90;;;;;;5019375;28;20264;-76
2021/11/23 05:56:08;;;;;;;2.03;1.92;;;8.30;99.90;;;;;;5023627;28;20246;-76
2021/11/23 05:58:36;;;;;;;2.60;2.40;;;8.30;99.90;;;;;;5024045;28;20246;-76
2021/11/23 06:01:03;;;;;;;2.40;2.30;;;8.30;99.90;;;;;;5023051;28;20230;-74
2021/11/23 06:03:31;;;;;;;2.53;2.42;;;8.30;99.90;;;;;;5021817;28;20266;-75
2021/11/23 06:05:59;;;;;;;2.35;2.22;;;8.30;99.90;;;;;;5015877;28;20243;-75
2021/11/23 06:08:27;;;;;;;2.10;2.00;;;8.30;99.90;;;;;;5019783;28;20235;-74
2021/11/23 06:10:54;;;;;;;2.33;2.17;;;8.30;99.90;;;;;;5021698;28;20639;-77
2021/11/23 06:13:21;;;;;;;2.72;2.63;;;8.30;99.90;;;;;;5021530;28;20227;-77
2021/11/23 06:15:48;;;;;;;2.38;2.22;;;8.30;99.90;;;;;;5018474;28;20231;-77
2021/11/23 06:18:16;;;;;;;2.30;2.20;;;8.30;99.90;;;;;;5021752;28;20218;-75
2021/11/23 06:20:45;;;;;;;2.70;2.50;;;8.30;99.90;;;;;;4996864;28;20321;-74
2021/11/23 06:23:16;;;;;;;2.63;2.53;;;8.30;99.90;;;;;;5037055;28;22717;-74
2021/11/23 06:25:43;;;;;;;3.05;2.85;;;8.20;99.90;;;;;;5018988;28;20223;-74
2021/11/23 06:28:12;;;;;;;2.55;2.42;;;8.10;99.90;;;;;;5022273;28;20223;-77
2021/11/23 06:30:40;;;;;;;2.63;2.53;;;8.20;99.90;;;;;;5023674;28;20231;-74
2021/11/23 06:33:07;;;;;;;2.35;2.25;;;8.10;99.90;;;;;;5023697;28;20220;-74
2021/11/23 06:35:34;;;;;;;2.95;2.75;;;8.10;99.90;;;;;;5021327;28;20285;-74
2021/11/23 06:38:01;;;;;;;2.83;2.63;;;8.00;99.90;;;;;;5021268;28;20220;-73
2021/11/23 06:40:30;;;;;;;2.70;2.50;;;8.00;99.90;;;;;;5022599;28;20219;-73
2021/11/23 06:42:57;;;;;;;2.78;2.58;;;8.00;99.90;;;;;;5021316;28;20247;-73
2021/11/23 06:45:24;;;;;;;2.80;2.70;;;8.00;99.90;;;;;;5026118;28;20230;-73
2021/11/23 06:47:51;;;;;;;2.95;2.75;;;7.90;99.90;;;;;;5023395;28;20227;-73
2021/11/23 06:50:18;;;;;;;2.55;2.45;;;7.90;99.90;;;;;;5020131;28;20220;-73
2021/11/23 06:52:46;;;;;;;2.97;2.63;;;7.90;99.90;;;;;;4974435;28;20231;-74
2021/11/23 06:55:13;;;;;;;2.55;2.45;;;7.90;99.90;;;;;;5021493;28;20622;-75
2021/11/23 06:57:42;;;;;;;2.70;2.60;;;7.90;99.90;;;;;;5019822;28;20235;-74
2021/11/23 07:00:10;;;;;;;3.50;3.30;;;7.80;99.90;;;;;;5022141;28;20239;-73
2021/11/23 07:02:37;;;;;;;4.15;3.20;;;7.80;99.90;;;;;;5022539;28;20226;-76
2021/11/23 07:05:05;;;;;;;3.35;3.05;;;7.70;99.90;;;;;;5022625;28;20220;-74
2021/11/23 07:07:32;;;;;;;3.05;2.85;;;7.70;99.90;;;;;;5023805;28;20499;-73
2021/11/23 07:10:06;;;;;;;3.20;3.00;;;7.70;99.90;;;;;;5022736;28;20224;-74
2021/11/23 07:12:33;;;;;;;3.40;3.20;;;7.60;99.90;;;;;;5022959;28;20232;-73
2021/11/23 07:15:02;;;;;;;3.00;2.80;;;7.60;99.90;;;;;;5021735;28;20252;-74
2021/11/23 07:17:29;;;;;;;3.10;2.90;;;7.60;99.90;;;;;;5022188;28;20223;-74
2021/11/23 07:19:56;;;;;;;3.10;2.90;;;7.60;99.90;;;;;;5023488;28;20211;-73
2021/11/23 07:22:23;;;;;;;2.92;2.72;;;7.70;99.90;;;;;;5023130;28;20234;-74
2021/11/23 07:24:51;;;;;;;2.70;2.50;;;7.70;99.90;;;;;;5062024;22;20232;-78
2021/11/23 07:27:19;;;;;;;3.03;2.80;;;7.80;99.90;;;;;;5061724;28;20225;-78
2021/11/23 07:29:46;;;;;;;2.80;2.60;;;7.80;99.90;;;;;;5062573;28;20229;-76
2021/11/23 07:32:14;;;;;;;2.88;2.67;;;7.90;99.90;;;;;;5067337;28;20712;-79
2021/11/23 07:34:42;;;;;;;2.50;2.38;;;7.90;99.90;;;;;;5052689;28;20563;-78
2021/11/23 07:37:09;;;;;;;2.92;2.72;;;7.80;99.90;;;;;;5039452;28;20211;-78
2021/11/23 07:39:37;;;;;;;2.60;2.50;;;7.80;99.90;;;;;;5045144;28;20465;-77
2021/11/23 07:42:05;;;;;;;2.80;2.60;;;7.80;99.90;;;;;;5043888;28;20230;-78
2021/11/23 07:44:32;;;;;;;2.63;2.53;;;7.80;99.90;;;;;;5047155;28;20250;-76
2021/11/23 07:46:59;;;;;;;2.67;2.47;;;7.80;99.90;;;;;;5044817;28;20211;-79
2021/11/23 07:49:28;;;;;;;3.53;3.22;;;7.80;99.90;;;;;;5040741;28;20730;-78
2021/11/23 07:51:55;;;;;;;2.80;2.60;;;7.80;99.90;;;;;;5045351;28;20697;-79
2021/11/23 07:54:22;;;;;;;2.95;2.75;;;7.80;99.90;;;;;;5047819;28;20732;-80
2021/11/23 07:56:49;;;;;;;3.10;2.90;;;7.90;99.90;;;;;;5044503;28;20227;-79
2021/11/23 07:59:16;;;;;;;3.17;2.97;;;7.90;99.90;;;;;;5045693;28;20600;-79
2021/11/23 08:01:44;;;;;;;2.33;2.22;;;7.90;99.90;;;;;;5042604;28;20226;-79
2021/11/23 08:04:11;;;;;;;3.78;3.05;;;7.90;99.90;;;;;;5023637;28;20218;-77
2021/11/23 08:06:40;;;;;;;3.50;3.30;;;8.30;99.90;;;;;;5012836;28;20268;-76
2021/11/23 08:09:07;;;;;;;3.80;3.45;;;8.90;99.90;;;;;;5032603;28;20708;-77
2021/11/23 08:11:34;;;;;;;3.25;3.05;;;9.90;99.90;;;;;;5028200;28;20235;-79
2021/11/23 08:14:01;;;;;;;3.17;2.70;;;11.10;99.90;;;;;;5032115;28;20223;-77
2021/11/23 08:16:28;;;;;;;2.97;2.78;;;11.90;99.90;;;;;;5028922;28;20735;-79
2021/11/23 08:18:57;;;;;;;2.72;2.53;;;12.20;99.90;;;;;;5020256;28;20231;-77
2021/11/23 08:21:25;;;;;;;3.00;2.70;;;12.10;99.90;;;;;;5018103;28;20751;-77
2021/11/23 08:23:53;;;;;;;2.88;2.67;;;11.80;99.90;;;;;;5024077;28;20224;-78
2021/11/23 08:26:20;;;;;;;3.15;2.95;;;12.00;99.90;;;;;;5027031;28;20230;-76
2021/11/23 08:28:47;;;;;;;2.63;2.42;;;12.30;99.90;;;;;;5025096;28;20675;-76
2021/11/23 08:31:15;;;;;;;2.78;2.53;;;12.50;99.90;;;;;;5028123;28;20229;-74
2021/11/23 08:33:42;;;;;;;3.58;2.78;;;12.90;99.90;;;;;;5024808;28;20509;-77
2021/11/23 08:36:09;;;;;;;2.88;2.67;;;13.50;99.90;;;;;;5019248;28;20254;-74
2021/11/23 08:38:37;;;;;;;3.40;3.10;;;14.10;99.90;;;;;;5018044;28;20223;-75
2021/11/23 08:41:07;;;;;;;2.90;2.70;;;14.30;99.90;;;;;;5024636;28;20223;-77
2021/11/23 08:43:34;;;;;;;4.22;2.30;;;14.10;99.90;;;;;;5017285;28;20219;-78
2021/11/23 08:46:01;;;;;;;5.90;3.00;;;13.70;99.90;;;;;;5029259;28;20232;-79
2021/11/23 08:48:28;;;;;;;2.97;2.78;;;13.50;99.90;;;;;;5029562;28;20224;-79
2021/11/23 08:50:56;;;;;;;2.67;2.47;;;13.50;99.90;;;;;;5037966;28;20711;-77
2021/11/23 08:53:24;;;;;;;2.70;2.50;;;13.60;99.90;;;;;;5029127;28;20316;-76
2021/11/23 08:56:01;;;;;;;3.25;2.53;;;13.70;99.90;;;;;;5035129;28;20308;-77
2021/11/23 08:58:30;;;;;;;3.15;2.80;;;13.60;99.90;;;;;;5035529;28;20888;-77
2021/11/23 09:01:02;;;;;;;2.33;2.15;;;13.90;99.90;;;;;;5029055;28;20227;-77
2021/11/23 09:03:48;;;;;;;2.42;2.30;;;14.50;99.90;;;;;;5034494;28;20223;-76
2021/11/23 09:06:15;;;;;;;3.10;2.80;;;16.00;99.90;;;;;;5036562;28;20442;-79
2021/11/23 09:08:53;;;;;;;2.60;2.40;;;17.40;99.90;;;;;;5034631;28;20633;-75
2021/11/23 09:11:22;;;;;;;2.42;2.22;;;19.00;99.90;;;;;;5029257;28;20253;-77
2021/11/23 09:13:50;;;;;;;2.53;2.30;;;20.80;99.90;;;;;;5031582;28;20233;-77
2021/11/23 09:16:17;;;;;;;2.58;2.22;;;22.40;99.90;;;;;;5027910;28;20630;-79
2021/11/23 09:18:45;;;;;;;3.13;2.30;;;23.50;97.80;;;;;;5032984;28;20214;-77
2021/11/23 09:21:12;;;;;;;2.50;2.30;;;24.10;93.10;;;;;;5030317;28;20223;-78
2021/11/23 09:23:39;;;;;;;2.35;2.15;;;24.70;88.50;;;;;;5027107;28;20223;-77
2021/11/23 09:26:06;;;;;;;3.38;2.15;;;24.70;83.70;;;;;;5031459;28;20270;-79
2021/11/23 09:28:33;;;;;;;2.28;2.03;;;24.60;81.30;;;;;;5030224;28;20242;-78
2021/11/23 09:31:10;;;;;;;2.60;2.40;;;24.30;80.80;;;;;;5032380;28;20212;-79
2021/11/23 09:33:48;;;;;;;2.33;2.03;;;23.90;82.00;;;;;;5031110;28;20229;-78
2021/11/23 09:36:16;;;;;;;2.35;2.20;;;23.10;84.80;;;;;;5034956;28;20226;-78
2021/11/23 09:38:44;;;;;;;4.05;2.55;;;22.10;87.70;;;;;;5031690;28;20227;-79
2021/11/23 09:41:11;;;;;;;3.33;3.03;;;20.70;90.70;;;;;;5033037;28;20225;-80
2021/11/23 09:43:41;;;;;;;2.90;2.60;;;19.50;93.60;;;;;;5030728;28;20602;-80
2021/11/23 09:46:11;;;;;;;2.90;2.70;;;18.70;96.10;;;;;;5034756;28;20229;-78
2021/11/23 09:48:52;;;;;;;2.88;2.67;;;18.30;97.40;;;;;;5032268;28;20220;-77
2021/11/23 09:51:25;;;;;;;3.63;2.85;;;17.80;98.10;;;;;;5035318;28;20227;-77
2021/11/23 09:53:53;;;;;;;3.25;2.95;;;17.70;99.20;;;;;;5037510;28;20227;-77
2021/11/23 09:56:38;;;;;;;3.00;2.70;;;17.70;99.90;;;;;;5036499;28;20219;-79
2021/11/23 09:59:06;;;;;;;2.67;2.47;;;17.50;99.30;;;;;;5034321;28;20225;-79
2021/11/23 10:01:49;;;;;;;3.58;2.90;;;17.20;99.90;;;;;;5032244;28;20219;-78
2021/11/23 10:04:17;;;;;;;2.70;2.50;;;17.00;99.90;;;;;;5031630;28;20222;-76
2021/11/23 10:06:56;;;;;;;4.28;2.55;;;17.00;99.90;;;;;;5037647;28;20241;-79
2021/11/23 10:09:53;;;;;;;3.72;2.88;;;17.10;99.90;;;;;;5029194;28;20515;-78
2021/11/23 10:12:24;;;;;;;2.92;2.47;;;17.10;99.90;;;;;;5033694;28;20310;-77
2021/11/23 10:15:25;;;;;;;2.63;2.42;;;17.00;99.90;;;;;;5028833;28;20251;-78
2021/11/23 10:17:56;;;;;;;2.60;2.40;;;16.90;99.40;;;;;;4971121;28;20852;-78
2021/11/23 10:20:57;;;;;;;2.90;2.25;;;16.80;99.90;;;;;;5018891;28;20732;-77
2021/11/23 10:23:27;;;;;;;2.67;2.47;;;16.90;99.90;;;;;;5031611;28;20550;-80
2021/11/23 10:25:57;;;;;;;2.28;2.08;;;17.10;99.90;;;;;;5033021;28;20212;-76
2021/11/23 10:28:28;;;;;;;2.65;2.45;;;17.10;99.90;;;;;;5038068;28;20226;-80
2021/11/23 10:31:12;;;;;;;3.67;2.40;;;17.50;99.90;;;;;;5029307;28;20226;-76
2021/11/23 10:33:42;;;;;;;2.92;2.70;;;17.60;99.90;;;;;;5031151;28;20227;-79
2021/11/23 10:36:17;;;;;;;2.65;2.45;;;17.70;99.90;;;;;;5029561;28;20215;-79
2021/11/23 10:38:44;;;;;;;3.13;2.50;;;17.60;99.90;;;;;;5032533;28;20670;-78
2021/11/23 10:41:14;;;;;;;2.40;2.20;;;17.50;99.90;;;;;;5035160;28;20211;-75
2021/11/23 10:43:43;;;;;;;2.60;2.40;;;17.70;99.90;;;;;;5030107;28;20415;-78
2021/11/23 10:46:15;;;;;;;2.83;2.60;;;17.50;99.90;;;;;;5032454;28;20218;-79
2021/11/23 10:48:59;;;;;;;3.28;2.72;;;17.60;99.90;;;;;;5026142;28;20259;-79
2021/11/23 10:51:44;;;;;;;2.70;2.50;;;17.80;99.90;;;;;;5029954;28;20233;-78
2021/11/23 10:54:15;;;;;;;2.28;2.10;;;17.80;99.90;;;;;;5032218;28;20641;-77
2021/11/23 10:56:59;;;;;;;2.47;2.28;;;17.90;99.90;;;;;;5032872;28;20456;-77
2021/11/23 10:59:27;;;;;;;2.60;2.40;;;17.90;99.70;;;;;;5028119;28;20222;-77
2021/11/23 11:01:55;;;;;;;2.88;2.67;;;17.80;99.90;;;;;;5031803;28;20211;-78
2021/11/23 11:04:24;;;;;;;2.65;2.30;;;17.50;99.90;;;;;;5027531;28;20269;-78
2021/11/23 11:06:53;;;;;;;2.30;2.10;;;17.70;99.90;;;;;;5032010;28;20231;-79
2021/11/23 11:09:22;;;;;;;2.83;2.60;;;17.80;99.90;;;;;;5030212;28;20301;-78
2021/11/23 11:11:49;;;;;;;2.50;2.30;;;17.40;99.70;;;;;;5020831;28;20233;-78
2021/11/23 11:14:17;;;;;;;2.17;2.08;;;17.20;99.80;;;;;;5026532;28;20242;-78
2021/11/23 11:16:44;;;;;;;2.35;2.15;;;17.30;99.90;;;;;;5027096;28;20223;-78
2021/11/23 11:19:13;;;;;;;2.55;2.35;;;17.60;99.90;;;;;;5029696;28;20856;-77
2021/11/23 11:22:04;;;;;;;3.10;2.13;;;17.70;99.90;;;;;;5028448;28;20709;-77
2021/11/23 11:24:37;;;;;;;3.83;2.58;;;17.80;99.90;;;;;;5027563;28;20247;-77
2021/11/23 11:27:14;;;;;;;3.40;1.90;;;17.60;99.60;;;;;;5026519;28;20218;-78
2021/11/23 11:29:43;;;;;;;4.07;2.22;;;17.50;98.30;;;;;;5033217;28;20227;-78
2021/11/23 11:32:32;;;;;;;1.98;1.88;;;17.40;99.00;;;;;;5026130;28;20221;-79
2021/11/23 11:35:26;;;;;;;1.80;1.70;;;17.20;97.00;;;;;;5032121;28;20216;-78
2021/11/23 11:37:56;;;;;;;6.28;2.30;;;17.10;97.80;;;;;;5028719;28;20222;-76
2021/11/23 11:40:28;;;;;;;3.83;2.00;;;17.10;99.20;;;;;;5021059;28;20252;-78
2021/11/23 11:43:01;;;;;;;2.22;2.10;;;17.00;98.20;;;;;;5026255;28;20407;-77
2021/11/23 11:45:43;;;;;;;2.00;1.90;;;16.80;98.20;;;;;;5027116;28;20305;-77
2021/11/23 11:48:49;;;;;;;2.05;1.95;;;16.60;99.00;;;;;;5030909;28;20425;-78
2021/11/23 11:51:29;;;;;;;1.75;1.65;;;16.40;97.60;;;;;;5039944;28;20241;-81
2021/11/23 11:53:59;;;;;;;2.15;2.05;;;16.30;98.70;;;;;;5022347;28;20229;-79
2021/11/23 11:56:49;;;;;;;2.58;2.38;;;16.20;99.20;;;;;;5041086;28;20220;-79
2021/11/23 11:59:35;;;;;;;2.35;2.15;;;16.30;99.40;;;;;;5035573;28;20226;-78
2021/11/23 12:02:15;;;;;;;1.95;1.85;;;16.40;99.10;;;;;;5037281;28;20696;-79
2021/11/23 12:05:03;;;;;;;1.80;1.70;;;16.80;99.40;;;;;;5035474;28;20250;-79
2021/11/23 12:07:41;;;;;;;2.03;1.80;;;16.60;99.20;;;;;;5038950;28;20226;-76
2021/11/23 12:10:26;;;;;;;2.17;2.00;;;16.90;99.50;;;;;;5032309;28;20222;-80
2021/11/23 12:13:10;;;;;;;1.90;1.80;;;17.00;99.20;;;;;;5027618;28;20223;-80
2021/11/23 12:16:02;;;;;;;1.77;1.65;;;17.00;99.10;;;;;;5034705;28;20222;-79
2021/11/23 12:19:09;;;;;;;2.60;1.77;;;17.20;99.70;;;;;;5018480;28;20214;-79
2021/11/23 12:21:51;;;;;;;2.08;1.90;;;17.20;97.70;;;;;;5045467;28;20220;-79
2021/11/23 12:24:25;;;;;;;1.95;1.85;;;17.50;98.80;;;;;;5027272;28;20234;-79
2021/11/23 12:26:54;;;;;;;2.60;2.40;;;17.50;99.00;;;;;;5043337;28;20218;-78
2021/11/23 12:29:27;;;;;;;1.88;1.77;;;16.90;99.00;;;;;;5041743;28;20239;-77
2021/11/23 12:31:55;;;;;;;2.13;1.98;;;16.60;99.10;;;;;;5042239;28;20703;-79
2021/11/23 12:34:29;;;;;;;2.33;1.90;;;16.40;99.30;;;;;;5040980;28;20649;-79
2021/11/23 12:36:57;;;;;;;2.13;2.00;;;16.30;99.60;;;;;;5038814;28;20226;-79
2021/11/23 12:39:26;;;;;;;2.00;1.90;;;16.50;99.90;;;;;;5026276;28;21826;-78
2021/11/23 12:42:00;;;;;;;1.80;1.70;;;16.80;99.90;;;;;;5044236;28;20215;-80
2021/11/23 12:44:44;;;;;;;1.95;1.85;;;16.90;99.90;;;;;;5036662;28;20215;-80
2021/11/23 12:47:30;;;;;;;2.13;1.92;;;17.00;98.00;;;;;;5036488;28;20218;-79
2021/11/23 12:49:59;;;;;;;2.63;2.22;;;16.70;98.30;;;;;;5040216;28;20219;-78
2021/11/23 12:52:33;;;;;;;3.50;2.10;;;16.30;99.70;;;;;;5039843;28;20222;-78
2021/11/23 12:55:07;;;;;;;1.85;1.75;;;16.10;99.60;;;;;;5039149;28;20227;-76
2021/11/23 12:57:34;;;;;;;2.20;1.90;;;15.70;98.80;;;;;;5037745;28;20226;-78
2021/11/23 13:00:06;;;;;;;2.00;1.90;;;15.60;99.90;;;;;;5034836;28;20716;-79
2021/11/23 13:02:38;;;;;;;2.13;1.80;;;15.70;99.90;;;;;;5026844;28;20227;-78
2021/11/23 13:05:26;;;;;;;1.95;1.85;;;15.80;99.90;;;;;;5035760;28;20226;-80
2021/11/23 13:07:59;;;;;;;2.05;1.95;;;15.90;99.90;;;;;;5036136;28;20227;-79